Latest Coastal Weather Observations for Dunalley

IDT60701

Issued at 2:52 pm EDT Monday 18 November 2019 (issued every 10 minutes, with the page automatically refreshed every 10 minutes)

About coastal observations | Map of coastal stations | Coastal observations for TAS | Marine services | Other Formats
Station Details ID: 094254 Name: DUNALLEY (STROUD POINT) Lat: -42.90 Lon: 147.79 Height: 12.43 m
Data from the previous 72 hours. | See also: Recent months at Dunalley
Date/Time
EDT
Wind Sea
Height
m
Swell Vis
km
Cloud Weather Temp
°C
Press
hPa
Rain since
9am
mm
Dir  Spd
kts
Gust
kts
Height
m
Period
s
Dir
18/02:30pm W 24 35 - - - - - - - 19.8 1001.2 0.0
18/02:19pm W 23 33 - - - - - - - 19.8 1001.3 0.0
18/02:00pm W 25 31 - - - - - - - 19.4 1001.6 0.0
18/01:32pm WSW 24 36 - - - - - - - 19.2 1001.5 0.0
18/01:30pm W 24 32 - - - - - - - 19.3 1001.6 0.0
18/01:00pm W 27 34 - - - - - - - 18.0 1001.8 0.0
18/12:47pm W 27 37 - - - - - - - 18.6 1001.8 0.0
18/12:30pm W 29 35 - - - - - - - 18.6 1001.8 0.0
18/12:00pm W 25 38 - - - - - - - 19.4 1001.7 0.0
18/11:30am W 27 38 - - - - - - - 19.3 1001.8 0.0
18/11:00am WNW 26 38 - - - - - - - 19.2 1002.6 0.0
18/10:30am W 22 33 - - - - - - - 18.8 1002.5 0.0
18/10:08am W 22 32 - - - - - - - 18.0 1002.9 0.0
18/10:00am WNW 22 31 - - - - - - - 18.2 1002.9 0.0
18/09:30am WNW 24 35 - - - - - - - 17.1 1003.3 0.0
18/09:27am WNW 23 35 - - - - - - - 17.2 1003.3 0.0
18/09:00am WNW 20 29 - - - - - - - 16.2 1003.7 0.0
18/08:30am WNW 19 27 - - - - - - - 15.6 1004.1 0.0
18/08:16am WNW 18 32 - - - - - - - 15.3 1004.3 0.0
18/08:00am WNW 16 25 - - - - - - - 14.6 1004.5 0.0
18/07:59am WNW 15 25 - - - - - - - 14.7 1004.5 0.0
18/07:30am NW 15 22 - - - - - - - 14.1 1004.5 0.0
18/07:00am NW 13 21 - - - - - - - 13.2 1004.7 0.0
18/06:30am WNW 13 18 - - - - - - - 12.0 1005.1 0.0
18/06:00am NW 15 21 - - - - - - - 11.7 1005.5 0.0
18/05:42am NW 15 25 - - - - - - - 11.4 1005.5 0.0
18/05:30am WNW 17 23 - - - - - - - 11.4 1005.6 0.0
18/05:19am WNW 17 27 - - - - - - - 11.4 1005.7 0.0
18/05:00am WNW 17 26 - - - - - - - 11.4 1005.8 0.0
18/04:30am NW 14 24 - - - - - - - 11.5 1006.4 0.0
18/04:00am WNW 16 23 - - - - - - - 11.5 1006.8 0.0
18/03:52am WNW 18 28 - - - - - - - 11.3 1007.1 0.0
18/03:30am WNW 17 23 - - - - - - - 11.2 1007.5 0.0
18/03:00am NNW 6 15 - - - - - - - 11.0 1007.9 0.0
18/02:30am NW 8 13 - - - - - - - 11.2 1008.8 0.0
18/02:00am NW 15 22 - - - - - - - 11.2 1009.0 0.0
18/01:30am WNW 13 18 - - - - - - - 11.2 1010.2 0.0
18/01:00am NW 7 14 - - - - - - - 11.2 1010.7 0.0
18/12:30am NW 8 13 - - - - - - - 11.5 1011.6 0.0
18/12:00am NW 14 20 - - - - - - - 11.5 1011.7 0.0
 
Date/Time
EDT
Wind Sea
Height
m
Swell Vis
km
Cloud Weather Temp
°C
Press
hPa
Rain since
9am
mm
Dir  Spd
kts
Gust
kts
Height
m
Period
s
Dir
17/11:30pm WNW 15 22 - - - - - - - 11.6 1011.9 0.0
17/11:11pm WNW 16 27 - - - - - - - 11.8 1012.4 0.0
17/11:00pm NW 13 19 - - - - - - - 11.8 1012.5 0.0
17/10:30pm WNW 14 20 - - - - - - - 12.2 1013.4 0.0
17/10:00pm WNW 10 15 - - - - - - - 12.5 1013.9 0.0
17/09:30pm NW 7 10 - - - - - - - 12.6 1013.9 0.0
17/09:00pm WNW 6 9 - - - - - - - 12.9 1014.0 0.0
17/08:30pm W 7 9 - - - - - - - 13.2 1014.1 0.0
17/08:00pm WNW 6 11 - - - - - - - 13.5 1014.5 0.0
17/07:30pm WNW 10 14 - - - - - - - 13.9 1014.3 0.0
17/07:00pm W 9 13 - - - - - - - 14.1 1014.3 0.0
17/06:30pm WSW 12 14 - - - - - - - 14.0 1014.2 0.0
17/06:00pm SW 13 16 - - - - - - - 14.4 1014.3 0.0
17/05:30pm SW 11 15 - - - - - - - 14.8 1014.3 0.0
17/05:00pm SW 15 19 - - - - - - - 14.7 1014.1 0.0
17/04:30pm SW 14 17 - - - - - - - 15.1 1014.1 0.0
17/04:00pm SW 16 19 - - - - - - - 15.7 1014.0 0.0
17/03:30pm SW 13 15 - - - - - - - 15.4 1013.9 0.0
17/03:00pm SW 16 20 - - - - - - - 15.3 1014.1 0.0
17/02:50pm SW 16 26 - - - - - - - 15.7 1014.1 0.0
17/02:30pm SW 14 17 - - - - - - - 15.2 1014.5 0.0
17/02:00pm SW 12 15 - - - - - - - 14.7 1014.9 0.0
17/01:30pm SW 12 15 - - - - - - - 14.7 1014.8 0.0
17/01:00pm SW 15 19 - - - - - - - 14.2 1014.7 0.0
17/12:30pm WSW 16 19 - - - - - - - 13.9 1014.6 0.0
17/12:00pm SW 16 20 - - - - - - - 13.9 1014.8 0.0
17/11:30am SW 17 21 - - - - - - - 12.8 1015.2 0.0
17/11:00am WSW 16 20 - - - - - - - 11.9 1015.6 0.0
17/10:30am WSW 18 22 - - - - - - - 12.4 1015.3 0.0
17/10:00am WSW 19 24 - - - - - - - 12.1 1015.1 0.0
17/09:30am WSW 22 29 - - - - - - - 11.5 1014.6 0.0
17/09:00am WSW 22 27 - - - - - - - 11.0 1014.5 0.2
17/08:30am WSW 18 23 - - - - - - - 10.4 1014.7 0.2
17/08:00am W 19 23 - - - - - - - 10.0 1014.5 0.2
17/07:30am W 19 24 - - - - - - - 9.3 1013.9 0.2
17/07:00am WSW 22 26 - - - - - - - 8.9 1013.5 0.2
17/06:30am W 21 26 - - - - - - - 8.6 1013.2 0.2
17/06:00am W 22 27 - - - - - - - 8.4 1012.9 0.2
17/05:30am W 21 27 - - - - - - - 8.4 1012.3 0.2
17/05:00am WSW 24 29 - - - - - - - 8.7 1012.2 0.2
17/04:30am W 23 27 - - - - - - - 8.5 1011.9 0.2
17/04:00am WSW 22 27 - - - - - - - 9.1 1011.6 0.2
17/03:30am WSW 24 29 - - - - - - - 9.0 1011.2 0.2
17/03:00am W 21 24 - - - - - - - 8.9 1011.0 0.2
17/02:30am W 19 23 - - - - - - - 8.6 1011.0 0.2
17/02:00am WSW 22 24 - - - - - - - 9.1 1010.8 0.2
17/01:30am WSW 24 28 - - - - - - - 9.4 1010.7 0.2
17/01:00am WSW 21 25 - - - - - - - 9.3 1010.5 0.2
17/12:30am WSW 24 27 - - - - - - - 9.5 1010.4 0.2
17/12:00am W 20 25 - - - - - - - 9.9 1010.3 0.2
 
Date/Time
EDT
Wind Sea
Height
m
Swell Vis
km
Cloud Weather Temp
°C
Press
hPa
Rain since
9am
mm
Dir  Spd
kts
Gust
kts
Height
m
Period
s
Dir
16/11:30pm W 16 19 - - - - - - - 10.0 1010.5 0.2
16/11:00pm W 15 20 - - - - - - - 10.2 1010.4 0.2
16/10:30pm W 12 17 - - - - - - - 10.0 1010.1 0.2
16/10:04pm W 16 26 - - - - - - - 10.6 1009.9 0.2
16/10:00pm WSW 20 26 - - - - - - - 10.8 1009.8 0.2
16/09:47pm W 15 28 - - - - - - - 11.0 1009.3 0.2
16/09:30pm WNW 12 16 - - - - - - - 10.0 1009.7 0.2
16/09:00pm WNW 9 12 - - - - - - - 10.8 1009.5 0.0
16/08:30pm WSW 18 25 - - - - - - - 11.5 1009.0 0.0
16/08:00pm WSW 20 24 - - - - - - - 11.5 1008.5 0.0
16/07:30pm WSW 20 25 - - - - - - - 11.6 1008.4 0.0
16/07:00pm WSW 25 29 - - - - - - - 12.6 1008.0 0.0
16/06:30pm W 22 32 - - - - - - - 12.4 1007.6 0.0
16/06:03pm W 17 28 - - - - - - - 13.1 1007.2 0.0
16/06:00pm W 15 21 - - - - - - - 13.1 1007.2 0.0
16/05:30pm WSW 18 27 - - - - - - - 13.6 1006.8 0.0
16/05:27pm WSW 17 27 - - - - - - - 13.6 1006.6 0.0
16/05:00pm WSW 16 23 - - - - - - - 13.3 1007.0 0.0
16/04:30pm SW 20 24 - - - - - - - 14.0 1006.7 0.0
16/04:00pm SW 18 22 - - - - - - - 13.0 1006.5 0.0
16/03:30pm W 11 16 - - - - - - - 13.7 1006.6 0.0
16/03:00pm WSW 15 24 - - - - - - - 14.1 1006.9 0.0
16/02:30pm W 21 28 - - - - - - - 12.7 1007.1 0.0
16/02:00pm WNW 16 25 - - - - - - - 13.4 1006.5 0.0
16/01:56pm WNW 15 21 - - - - - - - 13.7 1006.5 0.0
16/01:30pm W 21 30 - - - - - - - 14.5 1006.4 0.0
16/01:00pm W 15 23 - - - - - - - 15.1 1006.4 0.0
16/12:30pm W 18 22 - - - - - - - 12.9 1006.7 0.0
16/12:00pm W 18 25 - - - - - - - 14.0 1007.0 0.0
16/11:30am W 19 23 - - - - - - - 12.2 1007.1 0.0
16/11:10am WSW 15 27 - - - - - - - 11.6 1006.8 0.0
16/11:00am WSW 12 15 - - - - - - - 11.6 1006.9 0.0
16/10:30am W 16 20 - - - - - - - 12.2 1006.8 0.0
16/10:00am W 22 28 - - - - - - - 11.3 1006.6 0.0
16/09:48am W 22 32 - - - - - - - 11.7 1006.4 0.0
16/09:30am WSW 23 28 - - - - - - - 12.3 1006.3 0.0
16/09:00am WSW 23 27 - - - - - - - 11.2 1006.5 0.4
16/08:40am W 16 29 - - - - - - - 11.1 1006.6 0.4
16/08:30am W 15 23 - - - - - - - 10.7 1006.8 0.4
16/08:00am WSW 15 20 - - - - - - - 10.5 1006.6 0.4
16/07:49am W 16 26 - - - - - - - 10.6 1006.6 0.4
16/07:41am W 18 26 - - - - - - - 10.1 1006.4 0.4
16/07:30am W 14 16 - - - - - - - 9.6 1006.3 0.4
16/07:00am W 20 26 - - - - - - - 9.2 1006.2 0.4
16/06:30am W 26 34 - - - - - - - 9.3 1005.5 0.4
16/06:17am W 20 34 - - - - - - - 9.4 1005.4 0.4
16/06:00am W 17 23 - - - - - - - 8.8 1005.2 0.4
16/05:30am W 18 22 - - - - - - - 8.6 1004.9 0.4
16/05:00am W 17 23 - - - - - - - 8.3 1004.7 0.4
16/04:30am WNW 13 18 - - - - - - - 7.6 1005.0 0.4
16/04:00am WNW 15 19 - - - - - - - 7.9 1004.9 0.4
16/03:30am WNW 15 21 - - - - - - - 8.0 1004.9 0.4
16/03:00am WNW 18 25 - - - - - - - 8.3 1004.9 0.4
16/02:30am WNW 15 22 - - - - - - - 8.1 1004.8 0.4
16/02:00am WNW 15 22 - - - - - - - 8.1 1004.8 0.4
16/01:30am WNW 11 16 - - - - - - - 7.9 1004.9 0.4
16/01:00am WNW 13 18 - - - - - - - 8.3 1005.0 0.4
16/12:30am WNW 12 18 - - - - - - - 8.1 1004.8 0.4
16/12:00am WNW 10 16 - - - - - - - 8.0 1004.8 0.4
 
Date/Time
EDT
Wind Sea
Height
m
Swell Vis
km
Cloud Weather Temp
°C
Press
hPa
Rain since
9am
mm
Dir  Spd
kts
Gust
kts
Height
m
Period
s
Dir
15/11:30pm WNW 9 14 - - - - - - - 8.8 1005.0 0.4
15/11:00pm WNW 7 12 - - - - - - - 8.7 1005.0 0.4
15/10:30pm W 18 23 - - - - - - - 9.8 1004.3 0.4
15/10:00pm W 19 24 - - - - - - - 9.8 1003.8 0.4
15/09:30pm W 22 28 - - - - - - - 9.7 1003.2 0.4
15/09:20pm WNW 19 29 - - - - - - - 9.5 1003.0 0.4
15/09:00pm W 20 27 - - - - - - - 9.6 1002.7 0.4
15/08:30pm W 27 34 - - - - - - - 9.9 1002.4 0.4
15/08:00pm WSW 29 34 - - - - - - - 11.0 1001.8 0.4
15/07:30pm WSW 25 32 - - - - - - - 11.6 1002.0 0.4
15/07:00pm WSW 28 36 - - - - - - - 11.9 1001.2 0.4
15/06:30pm W 20 27 - - - - - - - 11.9 1001.0 0.4
15/06:00pm WNW 17 25 - - - - - - - 11.9 1000.8 0.4
15/05:30pm WSW 15 19 - - - - - - - 12.1 1000.7 0.4
15/05:00pm WSW 20 25 - - - - - - - 12.2 1000.3 0.4
15/04:30pm W 17 24 - - - - - - - 13.2 1000.1 0.4
15/04:00pm W 22 27 - - - - - - - 12.8 999.6 0.4
15/03:39pm W 17 29 - - - - - - - 13.1 999.2 0.4
15/03:30pm W 12 17 - - - - - - - 13.3 999.4 0.4
15/03:15pm W 13 18 - - - - - - - 13.2 999.7 0.4
15/03:00pm WSW 21 28 - - - - - - Recent precip. 13.2 999.4 0.4
15/02:54pm WSW 25 32 - - - - - - - 12.4 999.5 0.4

Other formats

Comma delimited format used in spreadsheet applications
http://www.bom.gov.au/fwo/IDT60701/IDT60701.94951.axf

JavaScript Object Notation format (JSON) in row-major order
http://www.bom.gov.au/fwo/IDT60701/IDT60701.94951.json

Data quality

Most of these data are generated automatically and are frequently updated. Quality checks on data are not normally performed. It is possible for incorrect values to appear. Refer to information at About Latest Weather Observations and please check the disclaimer before using these data.